createdAt,value
2018-07-12T00:00:54.137Z,8.43
2018-07-12T00:03:22.231Z,9.27
2018-07-12T00:05:50.162Z,8.30
2018-07-12T00:08:18.136Z,8.83
2018-07-12T00:10:46.131Z,8.73
2018-07-12T00:13:14.134Z,8.90
2018-07-12T00:15:42.110Z,8.70
2018-07-12T00:18:10.130Z,8.40
2018-07-12T00:20:38.161Z,8.93
2018-07-12T00:23:06.133Z,8.57
2018-07-12T00:25:34.074Z,9.53
2018-07-12T00:28:02.121Z,9.33
2018-07-12T00:30:30.137Z,9.53
2018-07-12T00:32:58.225Z,9.83
2018-07-12T00:35:26.197Z,10.13
2018-07-12T00:37:54.183Z,10.07
2018-07-12T00:40:22.745Z,10.60
2018-07-12T00:42:50.682Z,10.43
2018-07-12T00:45:18.622Z,10.47
2018-07-12T00:47:46.674Z,10.35
2018-07-12T00:50:15.293Z,10.02
2018-07-12T00:52:45.902Z,10.52
2018-07-12T00:55:16.621Z,10.54
2018-07-12T00:57:46.550Z,10.45
2018-07-12T01:00:16.197Z,10.48
2018-07-12T01:02:45.830Z,11.57
2018-07-12T01:05:15.002Z,9.20
2018-07-12T01:07:42.942Z,10.37
2018-07-12T01:10:10.929Z,10.97
2018-07-12T01:12:39.186Z,9.73
2018-07-12T01:15:07.221Z,10.27
2018-07-12T01:17:35.209Z,10.17
2018-07-12T01:20:03.166Z,10.43
2018-07-12T01:22:31.312Z,11.07
2018-07-12T01:24:59.263Z,10.73
2018-07-12T01:27:27.262Z,9.90
2018-07-12T01:29:55.261Z,11.33
2018-07-12T01:32:23.221Z,10.73
2018-07-12T01:34:51.217Z,10.90
2018-07-12T01:37:19.948Z,12.07
2018-07-12T01:39:48.169Z,10.82
2018-07-12T01:42:16.210Z,10.23
2018-07-12T01:44:44.137Z,10.73
2018-07-12T01:47:12.213Z,11.73
2018-07-12T01:49:40.208Z,11.27
2018-07-12T01:52:08.141Z,10.43
2018-07-12T01:54:36.233Z,10.47
2018-07-12T01:57:04.230Z,10.90
2018-07-12T01:59:32.218Z,10.40
2018-07-12T02:02:00.196Z,10.63
2018-07-12T02:04:28.136Z,10.07
2018-07-12T02:06:56.135Z,9.83
2018-07-12T02:09:24.190Z,10.13
2018-07-12T02:11:52.178Z,10.43
2018-07-12T02:14:20.194Z,10.30
2018-07-12T02:16:48.169Z,11.03
2018-07-12T02:19:16.222Z,10.07
2018-07-12T02:21:44.156Z,9.87
2018-07-12T02:24:12.173Z,9.70
2018-07-12T02:26:40.102Z,9.70
2018-07-12T02:29:08.113Z,8.80
2018-07-12T02:31:36.186Z,8.87
2018-07-12T02:34:04.162Z,9.40
2018-07-12T02:36:32.210Z,9.07
2018-07-12T02:39:00.156Z,9.73
2018-07-12T02:41:28.154Z,10.20
2018-07-12T02:43:56.115Z,9.73
2018-07-12T02:46:24.092Z,9.40
2018-07-12T02:48:52.279Z,9.70
2018-07-12T02:51:20.208Z,8.90
2018-07-12T02:53:48.401Z,9.00
2018-07-12T02:56:16.653Z,8.53
2018-07-12T02:58:44.597Z,9.30
2018-07-12T03:01:12.975Z,9.23
2018-07-12T03:03:40.966Z,9.00
2018-07-12T03:06:09.288Z,7.50
2018-07-12T03:08:38.028Z,8.20
2018-07-12T03:11:08.716Z,7.50
2018-07-12T03:13:38.430Z,7.00
2018-07-12T03:16:09.134Z,7.60
2018-07-12T03:18:38.824Z,8.00
2018-07-12T03:21:07.950Z,7.87
2018-07-12T03:23:35.894Z,8.63
2018-07-12T03:26:03.925Z,9.10
2018-07-12T03:28:32.184Z,9.10
2018-07-12T03:31:00.258Z,9.10
2018-07-12T03:33:28.241Z,9.70
2018-07-12T03:35:56.221Z,10.47
2018-07-12T03:38:24.199Z,9.83
2018-07-12T03:40:52.189Z,9.77
2018-07-12T03:43:20.585Z,11.20
2018-07-12T03:45:48.773Z,10.47
2018-07-12T03:48:16.747Z,10.13
2018-07-12T03:50:45.103Z,10.43
2018-07-12T03:53:13.205Z,10.00
2018-07-12T03:55:41.325Z,9.63
2018-07-12T03:58:09.299Z,10.03
2018-07-12T04:00:37.259Z,10.57
2018-07-12T04:03:05.221Z,9.80
2018-07-12T04:05:33.178Z,10.13
2018-07-12T04:08:01.133Z,10.47
2018-07-12T04:10:29.198Z,9.97
2018-07-12T04:12:57.189Z,10.67
2018-07-12T04:15:25.145Z,10.43
2018-07-12T04:17:53.161Z,10.50
2018-07-12T04:20:21.211Z,10.93
2018-07-12T04:22:49.138Z,11.43
2018-07-12T04:25:17.337Z,13.20
2018-07-12T04:27:45.280Z,11.80
2018-07-12T04:30:13.281Z,11.40
2018-07-12T04:32:41.532Z,11.00
2018-07-12T04:35:09.462Z,11.80
2018-07-12T04:37:37.463Z,11.07
2018-07-12T04:40:05.590Z,13.37
2018-07-12T04:42:33.585Z,11.90
2018-07-12T04:45:01.879Z,12.40
2018-07-12T04:47:30.178Z,13.03
2018-07-12T04:49:58.161Z,12.77
2018-07-12T04:52:26.169Z,12.00
2018-07-12T04:54:54.109Z,14.10
2018-07-12T04:57:22.188Z,12.00
2018-07-12T04:59:50.190Z,13.77
2018-07-12T05:02:18.210Z,12.70
2018-07-12T05:04:46.184Z,13.87
2018-07-12T05:07:14.131Z,13.60
2018-07-12T05:09:42.229Z,12.43
2018-07-12T05:12:10.341Z,13.27
2018-07-12T05:14:38.397Z,13.23
2018-07-12T05:17:06.354Z,12.40
2018-07-12T05:19:34.849Z,12.95
2018-07-12T05:22:02.895Z,12.73
2018-07-12T05:24:31.002Z,12.43
2018-07-12T05:26:58.981Z,12.97
2018-07-12T05:29:29.633Z,12.38
2018-07-12T05:32:00.455Z,13.74
2018-07-12T05:34:30.613Z,12.33
2018-07-12T05:37:02.740Z,12.37
2018-07-12T05:39:34.450Z,13.05
2018-07-12T05:42:05.986Z,12.90
2018-07-12T05:44:38.633Z,11.50
2018-07-12T05:47:08.398Z,13.17
2018-07-12T05:49:39.217Z,12.53
2018-07-12T05:52:10.023Z,12.18
2018-07-12T05:54:40.834Z,11.90
2018-07-12T05:57:12.142Z,12.65
2018-07-12T05:59:42.965Z,11.88
2018-07-12T06:02:20.106Z,13.18
2018-07-12T06:04:50.349Z,11.60
2018-07-12T06:07:25.230Z,12.10
2018-07-12T06:09:55.171Z,10.37
2018-07-12T06:12:24.954Z,12.00
2018-07-12T06:14:54.810Z,10.30
2018-07-12T06:17:24.574Z,9.43
2018-07-12T06:19:54.373Z,9.67
2018-07-12T06:22:24.211Z,8.83
2018-07-12T06:24:54.026Z,8.85
2018-07-12T06:27:23.797Z,9.30
2018-07-12T06:29:54.701Z,8.45
2018-07-12T06:32:26.063Z,8.66
2018-07-12T06:34:56.953Z,8.98
2018-07-12T06:37:27.771Z,9.00
2018-07-12T06:39:59.370Z,8.36
2018-07-12T06:42:30.067Z,8.10
2018-07-12T06:45:01.156Z,7.83
2018-07-12T06:47:32.020Z,7.92
2018-07-12T06:50:02.786Z,8.18
2018-07-12T06:52:34.673Z,8.20
2018-07-12T06:55:05.033Z,7.70
2018-07-12T06:57:35.918Z,6.92
2018-07-12T07:00:06.742Z,6.92
2018-07-12T07:02:38.128Z,6.44
2018-07-12T07:05:08.950Z,6.90
2018-07-12T07:07:39.796Z,7.10
2018-07-12T07:10:10.701Z,7.15
2018-07-12T07:12:42.098Z,6.98
2018-07-12T07:15:12.891Z,7.22
2018-07-12T07:17:47.659Z,6.75
2018-07-12T07:20:17.638Z,6.45
2018-07-12T07:22:47.620Z,7.00
2018-07-12T07:25:17.402Z,6.60
2018-07-12T07:27:47.997Z,7.08
2018-07-12T07:30:17.965Z,7.60
2018-07-12T07:32:48.796Z,7.55
2018-07-12T07:35:19.741Z,7.60
2018-07-12T07:37:51.017Z,6.84
2018-07-12T07:40:21.802Z,6.42
2018-07-12T07:42:52.743Z,6.60
2018-07-12T07:45:23.985Z,5.66
2018-07-12T07:47:55.026Z,4.97
2018-07-12T07:50:25.751Z,5.03
2018-07-12T07:52:56.733Z,5.17
2018-07-12T07:55:32.292Z,5.62
2018-07-12T08:00:53.633Z,5.30
2018-07-12T08:03:23.500Z,4.20
2018-07-12T08:05:53.469Z,4.80
2018-07-12T08:08:23.267Z,4.50
2018-07-12T08:10:53.232Z,4.83
2018-07-12T08:13:23.158Z,5.03
2018-07-12T08:15:53.075Z,4.23
2018-07-12T08:18:23.213Z,5.10
2018-07-12T08:20:53.414Z,4.80
2018-07-12T08:23:23.677Z,4.60
2018-07-12T08:25:54.350Z,4.90
2018-07-12T08:28:26.937Z,4.17
2018-07-12T08:30:57.417Z,4.05
2018-07-12T08:33:27.860Z,4.25
2018-07-12T08:35:58.222Z,4.37
2018-07-12T08:38:28.055Z,4.70
2018-07-12T08:40:58.553Z,5.75
2018-07-12T08:43:28.686Z,4.50
2018-07-12T08:45:58.635Z,3.63
2018-07-12T08:48:28.529Z,3.70
2018-07-12T08:50:58.733Z,3.57
2018-07-12T08:53:28.538Z,3.53
2018-07-12T08:55:58.451Z,3.77
2018-07-12T08:58:28.353Z,3.47
2018-07-12T09:00:58.703Z,3.62
2018-07-12T09:03:28.530Z,3.70
2018-07-12T09:05:58.442Z,3.27
2018-07-12T09:08:28.748Z,3.50
2018-07-12T09:10:58.665Z,3.73
2018-07-12T09:13:28.506Z,3.97
2018-07-12T09:15:59.038Z,4.40
2018-07-12T09:18:29.796Z,4.60
2018-07-12T09:21:00.696Z,3.90
2018-07-12T09:23:31.959Z,3.42
2018-07-12T09:26:02.728Z,3.10
2018-07-12T09:28:33.639Z,3.27
2018-07-12T09:31:05.068Z,3.50
2018-07-12T09:33:35.837Z,3.65
2018-07-12T09:36:06.945Z,3.60
2018-07-12T09:38:53.131Z,3.33
2018-07-12T09:41:24.713Z,3.30
2018-07-12T09:43:54.936Z,3.30
2018-07-12T09:46:25.028Z,3.40
2018-07-12T09:48:55.186Z,2.90
2018-07-12T09:51:25.137Z,3.00
2018-07-12T09:53:55.555Z,2.70
2018-07-12T09:56:35.222Z,2.80
2018-07-12T09:59:05.315Z,3.00
2018-07-12T10:01:40.295Z,3.13
2018-07-12T10:04:10.150Z,3.80
2018-07-12T10:06:44.893Z,3.77
2018-07-12T10:09:19.989Z,3.90
2018-07-12T10:11:55.044Z,3.73
2018-07-12T10:14:30.019Z,4.70
2018-07-12T10:17:05.000Z,4.37
2018-07-12T10:19:35.040Z,4.03
2018-07-12T10:22:05.041Z,4.27
2018-07-12T10:24:35.136Z,4.60
2018-07-12T10:27:05.220Z,4.60
2018-07-12T10:29:35.095Z,5.03
2018-07-12T10:32:05.011Z,4.23
2018-07-12T10:34:35.017Z,4.10
2018-07-12T10:37:05.165Z,3.60
2018-07-12T10:39:35.118Z,4.00
2018-07-12T10:42:04.975Z,2.53
2018-07-12T10:44:35.258Z,1.60
2018-07-12T10:47:05.222Z,1.90
2018-07-12T10:49:35.188Z,1.90
2018-07-12T10:52:05.109Z,2.10
2018-07-12T10:54:35.111Z,1.80
2018-07-12T10:57:05.176Z,1.60
2018-07-12T10:59:35.078Z,1.43
2018-07-12T11:02:05.101Z,1.47
2018-07-12T11:04:35.020Z,1.50
2018-07-12T11:07:05.154Z,1.60
2018-07-12T11:09:35.130Z,1.30
2018-07-12T11:12:04.988Z,1.37
2018-07-12T11:14:35.065Z,1.50
2018-07-12T11:17:05.034Z,1.90
2018-07-12T11:19:35.058Z,1.60
2018-07-12T11:22:05.357Z,1.77
2018-07-12T11:24:35.378Z,1.80
2018-07-12T11:27:05.266Z,1.97
2018-07-12T11:29:45.820Z,1.90
2018-07-12T11:32:15.610Z,1.80
2018-07-12T11:34:45.446Z,1.57
2018-07-12T11:37:21.596Z,1.63
2018-07-12T11:39:51.661Z,1.83
2018-07-12T11:42:21.443Z,2.03
2018-07-12T11:44:51.653Z,1.90
2018-07-12T11:47:21.845Z,1.73
2018-07-12T11:49:52.080Z,1.93
2018-07-12T11:52:22.148Z,1.93
2018-07-12T11:54:52.849Z,2.30
2018-07-12T11:57:25.266Z,2.47
2018-07-12T11:59:55.358Z,3.50
2018-07-12T12:02:25.270Z,3.77
2018-07-12T12:04:55.132Z,3.70
2018-07-12T12:07:25.138Z,3.77
2018-07-12T12:09:55.066Z,4.30
2018-07-12T12:12:25.079Z,3.70
2018-07-12T12:14:55.035Z,3.70
2018-07-12T12:17:24.972Z,4.27
2018-07-12T12:19:54.992Z,3.70
2018-07-12T12:22:25.062Z,3.87
2018-07-12T12:24:55.067Z,3.70
2018-07-12T12:27:25.249Z,3.60
2018-07-12T12:29:55.769Z,3.45
2018-07-12T12:32:26.065Z,3.62
2018-07-12T12:34:56.828Z,3.00
2018-07-12T12:37:26.904Z,3.47
2018-07-12T12:39:57.074Z,3.47
2018-07-12T12:42:27.605Z,3.15
2018-07-12T12:44:57.761Z,2.80
2018-07-12T12:47:27.600Z,3.00
2018-07-12T12:49:57.877Z,3.00
2018-07-12T12:52:28.027Z,3.00
2018-07-12T12:54:57.974Z,2.60
2018-07-12T12:57:27.790Z,2.87
2018-07-12T12:59:58.098Z,2.93
2018-07-12T13:02:27.911Z,3.10
2018-07-12T13:04:57.818Z,3.20
2018-07-12T13:07:27.680Z,2.93
2018-07-12T13:09:57.604Z,3.50
2018-07-12T13:12:27.961Z,3.02
2018-07-12T13:14:57.882Z,3.00
2018-07-12T13:17:27.795Z,3.40
2018-07-12T13:19:58.911Z,2.70
2018-07-12T13:22:29.787Z,3.42
2018-07-12T13:25:01.166Z,3.30
2018-07-12T13:27:31.975Z,3.62
2018-07-12T13:30:03.652Z,3.33
2018-07-12T13:32:33.933Z,3.90
2018-07-12T13:35:04.846Z,3.40
2018-07-12T13:37:35.765Z,3.42
2018-07-12T13:40:07.721Z,3.70
2018-07-12T13:42:38.089Z,3.40
2018-07-12T13:45:09.079Z,3.67
2018-07-12T13:47:39.943Z,3.72
2018-07-12T13:50:11.047Z,5.53
2018-07-12T13:52:41.855Z,3.30
2018-07-12T13:55:12.937Z,3.50
2018-07-12T13:57:43.890Z,3.50
2018-07-12T14:00:14.851Z,3.27
2018-07-12T14:02:48.393Z,3.25
2018-07-12T14:05:18.857Z,4.07
2018-07-12T14:07:48.737Z,2.90
2018-07-12T14:10:18.949Z,3.20
2018-07-12T14:12:50.882Z,3.27
2018-07-12T14:15:20.951Z,3.43
2018-07-12T14:17:51.972Z,3.35
2018-07-12T14:20:23.662Z,2.75
2018-07-12T14:22:54.149Z,2.84
2018-07-12T14:25:25.047Z,2.33
2018-07-12T14:27:55.825Z,2.30
2018-07-12T14:30:26.745Z,1.90
2018-07-12T14:32:57.630Z,1.45
2018-07-12T14:35:27.587Z,1.50
2018-07-12T14:37:59.921Z,1.42
2018-07-12T14:40:30.784Z,1.32
2018-07-12T14:43:01.590Z,1.90
2018-07-12T14:45:32.996Z,1.52
2018-07-12T14:48:03.746Z,1.60
2018-07-12T14:50:35.225Z,1.42
2018-07-12T14:53:06.032Z,1.50
2018-07-12T14:55:37.105Z,1.50
2018-07-12T14:58:07.986Z,1.70
2018-07-12T15:00:39.164Z,1.50
2018-07-12T15:03:10.626Z,1.80
2018-07-12T15:05:40.886Z,1.63
2018-07-12T15:08:11.655Z,1.60
2018-07-12T15:10:44.249Z,1.80
2018-07-12T15:13:14.035Z,1.60
2018-07-12T15:15:44.895Z,1.55
2018-07-12T15:18:15.989Z,1.75
2018-07-12T15:20:47.086Z,1.80
2018-07-12T15:23:17.815Z,2.00
2018-07-12T15:25:48.693Z,1.52
2018-07-12T15:28:19.579Z,1.80
2018-07-12T15:30:50.999Z,2.20
2018-07-12T15:33:21.681Z,2.00
2018-07-12T15:35:53.111Z,2.06
2018-07-12T15:38:23.818Z,2.60
2018-07-12T15:40:54.643Z,2.17
2018-07-12T15:43:26.020Z,2.50
2018-07-12T15:45:56.801Z,2.17
2018-07-12T15:48:27.714Z,2.12
2018-07-12T15:50:58.639Z,2.15
2018-07-12T15:53:29.915Z,1.82
2018-07-12T15:56:00.707Z,1.92
2018-07-12T15:58:31.926Z,1.80
2018-07-12T16:01:02.701Z,1.77
2018-07-12T16:03:33.581Z,1.60
2018-07-12T16:06:04.970Z,1.20
2018-07-12T16:08:35.813Z,1.50
2018-07-12T16:11:06.710Z,1.50
2018-07-12T16:13:37.970Z,1.62
2018-07-12T16:16:08.782Z,1.75
2018-07-12T16:18:40.057Z,1.65
2018-07-12T16:21:10.823Z,1.70
2018-07-12T16:23:41.864Z,1.70
2018-07-12T16:26:13.602Z,1.72
2018-07-12T16:28:44.180Z,1.50
2018-07-12T16:31:15.622Z,1.70
2018-07-12T16:33:46.030Z,1.60
2018-07-12T16:36:16.860Z,1.92
2018-07-12T16:38:47.757Z,2.00
2018-07-12T16:41:17.706Z,2.05
2018-07-12T16:43:48.970Z,1.96
2018-07-12T16:46:20.091Z,1.98
2018-07-12T16:48:51.621Z,2.10
2018-07-12T16:51:22.006Z,1.80
2018-07-12T16:53:52.783Z,2.10
2018-07-12T16:56:23.693Z,1.30
2018-07-12T16:58:54.921Z,1.72
2018-07-12T17:01:25.719Z,1.72
2018-07-12T17:03:56.662Z,1.60
2018-07-12T17:06:28.416Z,1.52
2018-07-12T17:08:58.998Z,1.60
2018-07-12T17:11:29.852Z,1.40
2018-07-12T17:14:00.658Z,1.60
2018-07-12T17:16:32.014Z,1.86
2018-07-12T17:19:02.733Z,1.55
2018-07-12T17:21:33.689Z,1.40
2018-07-12T17:24:15.339Z,1.46
2018-07-12T17:26:45.630Z,1.60
2018-07-12T17:29:15.451Z,1.30
2018-07-12T17:31:45.366Z,1.50
2018-07-12T17:34:15.743Z,1.80
2018-07-12T17:36:45.654Z,2.23
2018-07-12T17:39:15.614Z,2.03
2018-07-12T17:41:45.603Z,2.03
2018-07-12T17:44:15.463Z,1.90
2018-07-12T17:46:46.327Z,1.72
2018-07-12T17:49:16.416Z,1.80
2018-07-12T17:51:46.791Z,1.80
2018-07-12T17:54:16.694Z,1.70
2018-07-12T17:56:46.647Z,1.70
2018-07-12T17:59:18.075Z,1.98
2018-07-12T18:01:48.888Z,1.87
2018-07-12T18:04:19.705Z,2.10
2018-07-12T18:06:50.721Z,2.25
2018-07-12T18:09:21.728Z,2.20
2018-07-12T18:11:53.211Z,2.46
2018-07-12T18:14:23.913Z,2.27
2018-07-12T18:16:55.698Z,2.40
2018-07-12T18:19:25.823Z,2.20
2018-07-12T18:21:57.202Z,2.40
2018-07-12T18:24:27.942Z,2.90
2018-07-12T18:26:58.900Z,3.47
2018-07-12T18:29:29.827Z,3.50
2018-07-12T18:32:00.458Z,3.52
2018-07-12T18:34:31.094Z,3.60
2018-07-12T18:37:02.291Z,3.52
2018-07-12T18:39:32.877Z,3.62
2018-07-12T18:42:03.849Z,3.37
2018-07-12T18:44:34.732Z,3.00
2018-07-12T18:47:06.550Z,4.26
2018-07-12T18:49:37.254Z,3.94
2018-07-12T18:52:08.273Z,3.90
2018-07-12T18:54:39.190Z,3.70
2018-07-12T18:57:10.039Z,3.22
2018-07-12T18:59:40.846Z,2.98
2018-07-12T19:02:11.862Z,3.15
2018-07-12T19:04:42.798Z,2.65
2018-07-12T19:07:13.713Z,2.25
2018-07-12T19:09:45.046Z,2.24
2018-07-12T19:12:15.921Z,2.00
2018-07-12T19:14:46.960Z,2.20
2018-07-12T19:17:17.794Z,1.90
2018-07-12T19:19:48.690Z,2.22
2018-07-12T19:22:20.149Z,1.96
2018-07-12T19:24:50.875Z,1.87
2018-07-12T19:27:21.779Z,1.80
2018-07-12T19:29:52.845Z,1.60
2018-07-12T19:32:23.826Z,1.65
2018-07-12T19:34:54.753Z,1.35
2018-07-12T19:37:25.877Z,1.50
2018-07-12T19:39:56.749Z,1.47
2018-07-12T19:42:27.812Z,1.30
2018-07-12T19:44:58.777Z,1.30
2018-07-12T19:47:29.730Z,1.40
2018-07-12T19:50:00.986Z,0.93
2018-07-12T19:52:31.966Z,1.10
2018-07-12T19:55:03.216Z,1.30
2018-07-12T19:57:33.990Z,0.90
2018-07-12T20:00:05.208Z,1.20
2018-07-12T20:02:36.109Z,1.00
2018-07-12T20:05:07.105Z,1.20
2018-07-12T20:07:38.134Z,1.00
2018-07-12T20:10:08.876Z,0.95
2018-07-12T20:12:38.773Z,0.90
2018-07-12T20:15:09.869Z,1.00
2018-07-12T20:17:40.820Z,1.15
2018-07-12T20:20:11.818Z,1.15
2018-07-12T20:22:42.809Z,0.93
2018-07-12T20:25:13.835Z,1.02
2018-07-12T20:27:44.892Z,1.10
2018-07-12T20:30:15.796Z,1.00
2018-07-12T20:32:46.883Z,1.30
2018-07-12T20:35:17.774Z,1.07
2018-07-12T20:37:48.748Z,1.00
2018-07-12T20:40:19.752Z,1.20
2018-07-12T20:42:51.657Z,1.30
2018-07-12T20:45:22.213Z,1.18
2018-07-12T20:47:53.328Z,1.00
2018-07-12T20:50:24.918Z,1.05
2018-07-12T20:52:54.911Z,1.10
2018-07-12T20:55:25.699Z,1.12
2018-07-12T20:57:57.002Z,1.17
2018-07-12T21:00:27.800Z,1.10
2018-07-12T21:02:58.816Z,1.22
2018-07-12T21:05:29.740Z,1.10
2018-07-12T21:08:01.172Z,1.38
2018-07-12T21:10:34.677Z,1.20
2018-07-12T21:13:04.550Z,1.60
2018-07-12T21:15:34.426Z,1.00
2018-07-12T21:18:05.031Z,1.40
2018-07-12T21:20:35.803Z,1.32
2018-07-12T21:23:06.919Z,1.37
2018-07-12T21:25:36.747Z,1.40
2018-07-12T21:28:07.955Z,1.40
2018-07-12T21:30:38.753Z,1.52
2018-07-12T21:33:09.665Z,1.98
2018-07-12T21:35:39.780Z,1.80
2018-07-12T21:38:10.838Z,1.50
2018-07-12T21:40:41.622Z,2.20
2018-07-12T21:43:13.042Z,2.40
2018-07-12T21:45:44.750Z,2.30
2018-07-12T21:48:15.241Z,2.50
2018-07-12T21:50:45.014Z,3.20
2018-07-12T21:53:15.777Z,2.70
2018-07-12T21:55:46.634Z,3.22
2018-07-12T21:58:18.149Z,3.32
2018-07-12T22:00:48.869Z,3.12
2018-07-12T22:03:19.814Z,3.20
2018-07-12T22:05:50.619Z,3.30
2018-07-12T22:08:26.020Z,3.32
2018-07-12T22:11:05.398Z,3.23
2018-07-12T22:13:36.400Z,3.40
2018-07-12T22:16:06.858Z,3.87
2018-07-12T22:18:36.666Z,3.97
2018-07-12T22:21:06.513Z,4.37
2018-07-12T22:23:36.460Z,4.27
2018-07-12T22:26:06.466Z,4.07
2018-07-12T22:28:36.717Z,4.05
2018-07-12T22:31:06.538Z,4.20
2018-07-12T22:33:36.425Z,3.73
2018-07-12T22:36:06.498Z,3.80
2018-07-12T22:38:36.334Z,4.10
2018-07-12T22:41:06.129Z,4.37
2018-07-12T22:43:35.972Z,5.17
2018-07-12T22:46:05.820Z,5.03
2018-07-12T22:48:36.790Z,5.67
2018-07-12T22:51:07.725Z,5.95
2018-07-12T22:53:39.000Z,5.60
2018-07-12T22:56:10.122Z,6.00
2018-07-12T22:58:39.966Z,6.17
2018-07-12T23:01:10.781Z,5.87
2018-07-12T23:03:42.041Z,6.36
2018-07-12T23:06:12.815Z,6.20
2018-07-12T23:08:43.736Z,5.53
2018-07-12T23:11:14.630Z,6.45
2018-07-12T23:13:46.010Z,6.76
2018-07-12T23:16:16.839Z,6.87
2018-07-12T23:18:47.730Z,6.55
2018-07-12T23:21:19.014Z,7.06
2018-07-12T23:23:49.845Z,6.58
2018-07-12T23:26:20.705Z,6.15
2018-07-12T23:28:52.018Z,7.00
2018-07-12T23:31:23.796Z,6.60
2018-07-12T23:33:53.711Z,6.80
2018-07-12T23:36:24.959Z,7.00
2018-07-12T23:38:55.761Z,6.55
2018-07-12T23:41:26.762Z,6.70
2018-07-12T23:43:58.050Z,6.96
2018-07-12T23:46:28.845Z,7.35
2018-07-12T23:48:59.710Z,6.60
2018-07-12T23:51:31.017Z,6.88
2018-07-12T23:54:01.867Z,6.60
2018-07-12T23:56:32.778Z,6.85
2018-07-12T23:59:03.738Z,6.67
